sensor_id;sensor_type;location;lat;lon;timestamp;P1;durP1;ratioP1;P2;durP2;ratioP2
2257;SDS011;1136;51.574;7.706;2023-04-26T00:01:10;5.60;;;3.13;;
2257;SDS011;1136;51.574;7.706;2023-04-26T00:03:36;5.20;;;3.20;;
2257;SDS011;1136;51.574;7.706;2023-04-26T00:06:05;5.30;;;3.40;;
2257;SDS011;1136;51.574;7.706;2023-04-26T00:08:35;7.83;;;3.63;;
2257;SDS011;1136;51.574;7.706;2023-04-26T00:11:01;4.57;;;3.27;;
2257;SDS011;1136;51.574;7.706;2023-04-26T00:13:28;8.40;;;3.90;;
2257;SDS011;1136;51.574;7.706;2023-04-26T00:15:54;4.80;;;3.60;;
2257;SDS011;1136;51.574;7.706;2023-04-26T00:18:21;7.43;;;3.83;;
2257;SDS011;1136;51.574;7.706;2023-04-26T00:20:48;10.70;;;5.53;;
2257;SDS011;1136;51.574;7.706;2023-04-26T00:23:15;8.37;;;4.40;;
2257;SDS011;1136;51.574;7.706;2023-04-26T00:25:42;17.83;;;4.00;;
2257;SDS011;1136;51.574;7.706;2023-04-26T00:28:09;4.13;;;3.03;;
2257;SDS011;1136;51.574;7.706;2023-04-26T00:30:36;9.50;;;3.53;;
2257;SDS011;1136;51.574;7.706;2023-04-26T00:33:06;3.73;;;3.20;;
2257;SDS011;1136;51.574;7.706;2023-04-26T00:35:33;8.37;;;3.73;;
2257;SDS011;1136;51.574;7.706;2023-04-26T00:37:59;5.97;;;3.80;;
2257;SDS011;1136;51.574;7.706;2023-04-26T00:40:26;5.80;;;3.03;;
2257;SDS011;1136;51.574;7.706;2023-04-26T00:42:56;4.17;;;2.70;;
2257;SDS011;1136;51.574;7.706;2023-04-26T00:45:23;10.83;;;3.63;;
2257;SDS011;1136;51.574;7.706;2023-04-26T00:47:49;5.47;;;3.27;;
2257;SDS011;1136;51.574;7.706;2023-04-26T00:50:16;11.03;;;4.93;;
2257;SDS011;1136;51.574;7.706;2023-04-26T00:52:44;11.33;;;3.50;;
2257;SDS011;1136;51.574;7.706;2023-04-26T00:55:11;8.20;;;3.77;;
2257;SDS011;1136;51.574;7.706;2023-04-26T00:57:38;7.27;;;3.80;;
2257;SDS011;1136;51.574;7.706;2023-04-26T01:00:05;4.07;;;3.50;;
2257;SDS011;1136;51.574;7.706;2023-04-26T01:02:36;5.67;;;3.70;;
2257;SDS011;1136;51.574;7.706;2023-04-26T01:05:04;10.00;;;3.77;;
2257;SDS011;1136;51.574;7.706;2023-04-26T01:07:31;4.90;;;2.70;;
2257;SDS011;1136;51.574;7.706;2023-04-26T01:09:58;8.27;;;3.27;;
2257;SDS011;1136;51.574;7.706;2023-04-26T01:12:25;6.67;;;3.60;;
2257;SDS011;1136;51.574;7.706;2023-04-26T01:14:52;11.07;;;3.90;;
2257;SDS011;1136;51.574;7.706;2023-04-26T01:17:19;5.53;;;3.40;;
2257;SDS011;1136;51.574;7.706;2023-04-26T01:19:46;4.47;;;3.30;;
2257;SDS011;1136;51.574;7.706;2023-04-26T01:22:14;5.23;;;3.70;;
2257;SDS011;1136;51.574;7.706;2023-04-26T01:24:42;8.83;;;3.40;;
2257;SDS011;1136;51.574;7.706;2023-04-26T01:27:11;11.80;;;3.47;;
2257;SDS011;1136;51.574;7.706;2023-04-26T01:29:38;7.80;;;3.60;;
2257;SDS011;1136;51.574;7.706;2023-04-26T01:32:04;8.43;;;4.50;;
2257;SDS011;1136;51.574;7.706;2023-04-26T01:34:31;5.50;;;3.53;;
2257;SDS011;1136;51.574;7.706;2023-04-26T01:36:59;6.10;;;4.17;;
2257;SDS011;1136;51.574;7.706;2023-04-26T01:39:26;3.57;;;3.27;;
2257;SDS011;1136;51.574;7.706;2023-04-26T01:41:53;9.37;;;3.97;;
2257;SDS011;1136;51.574;7.706;2023-04-26T01:44:19;6.93;;;4.70;;
2257;SDS011;1136;51.574;7.706;2023-04-26T01:46:46;6.50;;;4.20;;
2257;SDS011;1136;51.574;7.706;2023-04-26T01:49:12;7.60;;;4.30;;
2257;SDS011;1136;51.574;7.706;2023-04-26T01:51:39;5.10;;;3.87;;
2257;SDS011;1136;51.574;7.706;2023-04-26T01:54:05;6.27;;;3.73;;
2257;SDS011;1136;51.574;7.706;2023-04-26T01:56:32;6.97;;;3.43;;
2257;SDS011;1136;51.574;7.706;2023-04-26T01:58:59;6.30;;;4.30;;
2257;SDS011;1136;51.574;7.706;2023-04-26T02:01:25;7.57;;;3.77;;
2257;SDS011;1136;51.574;7.706;2023-04-26T02:03:52;12.03;;;4.40;;
2257;SDS011;1136;51.574;7.706;2023-04-26T02:06:19;10.47;;;5.07;;
2257;SDS011;1136;51.574;7.706;2023-04-26T02:08:46;9.70;;;4.07;;
2257;SDS011;1136;51.574;7.706;2023-04-26T02:11:13;10.30;;;4.47;;
2257;SDS011;1136;51.574;7.706;2023-04-26T02:13:39;7.83;;;4.20;;
2257;SDS011;1136;51.574;7.706;2023-04-26T02:16:06;6.23;;;4.30;;
2257;SDS011;1136;51.574;7.706;2023-04-26T02:18:33;7.27;;;4.80;;
2257;SDS011;1136;51.574;7.706;2023-04-26T02:21:00;6.93;;;4.77;;
2257;SDS011;1136;51.574;7.706;2023-04-26T02:23:26;6.30;;;3.97;;
2257;SDS011;1136;51.574;7.706;2023-04-26T02:25:53;6.20;;;4.20;;
2257;SDS011;1136;51.574;7.706;2023-04-26T02:28:19;13.60;;;4.70;;
2257;SDS011;1136;51.574;7.706;2023-04-26T02:30:46;7.07;;;4.13;;
2257;SDS011;1136;51.574;7.706;2023-04-26T02:33:12;9.20;;;4.90;;
2257;SDS011;1136;51.574;7.706;2023-04-26T02:35:39;11.80;;;4.90;;
2257;SDS011;1136;51.574;7.706;2023-04-26T02:38:06;7.27;;;4.20;;
2257;SDS011;1136;51.574;7.706;2023-04-26T02:40:32;12.23;;;5.03;;
2257;SDS011;1136;51.574;7.706;2023-04-26T02:42:59;11.47;;;4.97;;
2257;SDS011;1136;51.574;7.706;2023-04-26T02:45:25;7.83;;;4.40;;
2257;SDS011;1136;51.574;7.706;2023-04-26T02:47:52;4.83;;;4.43;;
2257;SDS011;1136;51.574;7.706;2023-04-26T02:50:19;15.10;;;4.90;;
2257;SDS011;1136;51.574;7.706;2023-04-26T02:52:45;10.00;;;4.83;;
2257;SDS011;1136;51.574;7.706;2023-04-26T02:55:12;11.10;;;5.50;;
2257;SDS011;1136;51.574;7.706;2023-04-26T02:57:38;7.17;;;4.10;;
2257;SDS011;1136;51.574;7.706;2023-04-26T03:00:05;14.40;;;7.30;;
2257;SDS011;1136;51.574;7.706;2023-04-26T03:02:33;9.50;;;5.37;;
2257;SDS011;1136;51.574;7.706;2023-04-26T03:05:00;4.63;;;4.20;;
2257;SDS011;1136;51.574;7.706;2023-04-26T03:07:27;16.77;;;5.57;;
2257;SDS011;1136;51.574;7.706;2023-04-26T03:09:53;10.57;;;5.67;;
2257;SDS011;1136;51.574;7.706;2023-04-26T03:12:20;8.03;;;5.17;;
2257;SDS011;1136;51.574;7.706;2023-04-26T03:14:47;15.20;;;7.17;;
2257;SDS011;1136;51.574;7.706;2023-04-26T03:17:13;6.87;;;4.57;;
2257;SDS011;1136;51.574;7.706;2023-04-26T03:19:40;10.10;;;4.93;;
2257;SDS011;1136;51.574;7.706;2023-04-26T03:22:06;10.37;;;5.27;;
2257;SDS011;1136;51.574;7.706;2023-04-26T03:24:33;11.07;;;6.00;;
2257;SDS011;1136;51.574;7.706;2023-04-26T03:26:59;11.30;;;4.83;;
2257;SDS011;1136;51.574;7.706;2023-04-26T03:29:25;9.53;;;6.10;;
2257;SDS011;1136;51.574;7.706;2023-04-26T03:31:52;9.10;;;5.50;;
2257;SDS011;1136;51.574;7.706;2023-04-26T03:34:18;11.00;;;5.47;;
2257;SDS011;1136;51.574;7.706;2023-04-26T03:36:45;5.70;;;4.90;;
2257;SDS011;1136;51.574;7.706;2023-04-26T03:39:12;8.90;;;5.23;;
2257;SDS011;1136;51.574;7.706;2023-04-26T03:41:38;9.77;;;5.70;;
2257;SDS011;1136;51.574;7.706;2023-04-26T03:44:05;7.23;;;4.90;;
2257;SDS011;1136;51.574;7.706;2023-04-26T03:46:32;8.17;;;5.40;;
2257;SDS011;1136;51.574;7.706;2023-04-26T03:48:59;7.57;;;5.10;;
2257;SDS011;1136;51.574;7.706;2023-04-26T03:51:25;8.50;;;5.23;;
2257;SDS011;1136;51.574;7.706;2023-04-26T03:53:53;8.10;;;5.57;;
2257;SDS011;1136;51.574;7.706;2023-04-26T03:56:20;16.37;;;5.30;;
2257;SDS011;1136;51.574;7.706;2023-04-26T03:58:47;8.83;;;5.60;;
2257;SDS011;1136;51.574;7.706;2023-04-26T04:01:13;11.43;;;5.57;;
2257;SDS011;1136;51.574;7.706;2023-04-26T04:03:40;8.27;;;6.00;;
2257;SDS011;1136;51.574;7.706;2023-04-26T04:06:07;9.27;;;5.60;;
2257;SDS011;1136;51.574;7.706;2023-04-26T04:08:34;7.87;;;6.03;;
2257;SDS011;1136;51.574;7.706;2023-04-26T04:11:00;11.80;;;7.40;;
2257;SDS011;1136;51.574;7.706;2023-04-26T04:13:27;11.57;;;5.87;;
2257;SDS011;1136;51.574;7.706;2023-04-26T04:15:54;17.83;;;7.57;;
2257;SDS011;1136;51.574;7.706;2023-04-26T04:18:20;14.73;;;6.60;;
2257;SDS011;1136;51.574;7.706;2023-04-26T04:20:47;6.77;;;5.80;;
2257;SDS011;1136;51.574;7.706;2023-04-26T04:23:14;11.03;;;6.90;;
2257;SDS011;1136;51.574;7.706;2023-04-26T04:25:40;10.77;;;7.17;;
2257;SDS011;1136;51.574;7.706;2023-04-26T04:28:07;9.83;;;5.90;;
2257;SDS011;1136;51.574;7.706;2023-04-26T04:30:34;15.63;;;7.30;;
2257;SDS011;1136;51.574;7.706;2023-04-26T04:33:00;13.67;;;7.23;;
2257;SDS011;1136;51.574;7.706;2023-04-26T04:35:29;11.20;;;6.97;;
2257;SDS011;1136;51.574;7.706;2023-04-26T04:37:58;9.97;;;7.27;;
2257;SDS011;1136;51.574;7.706;2023-04-26T04:40:26;13.10;;;7.93;;
2257;SDS011;1136;51.574;7.706;2023-04-26T04:42:53;11.47;;;8.17;;
2257;SDS011;1136;51.574;7.706;2023-04-26T04:45:20;13.00;;;7.57;;
2257;SDS011;1136;51.574;7.706;2023-04-26T04:47:47;13.83;;;7.10;;
2257;SDS011;1136;51.574;7.706;2023-04-26T04:50:14;18.93;;;8.40;;
2257;SDS011;1136;51.574;7.706;2023-04-26T04:52:41;14.97;;;7.83;;
2257;SDS011;1136;51.574;7.706;2023-04-26T04:55:07;15.07;;;7.40;;
2257;SDS011;1136;51.574;7.706;2023-04-26T04:57:35;16.00;;;8.27;;
2257;SDS011;1136;51.574;7.706;2023-04-26T05:00:02;13.50;;;7.57;;
2257;SDS011;1136;51.574;7.706;2023-04-26T05:02:35;14.83;;;8.80;;
2257;SDS011;1136;51.574;7.706;2023-04-26T05:05:03;12.20;;;9.00;;
2257;SDS011;1136;51.574;7.706;2023-04-26T05:07:30;12.67;;;7.73;;
2257;SDS011;1136;51.574;7.706;2023-04-26T05:09:57;20.17;;;9.37;;
2257;SDS011;1136;51.574;7.706;2023-04-26T05:12:25;11.20;;;7.77;;
2257;SDS011;1136;51.574;7.706;2023-04-26T05:14:51;12.30;;;7.83;;
2257;SDS011;1136;51.574;7.706;2023-04-26T05:17:18;24.83;;;8.37;;
2257;SDS011;1136;51.574;7.706;2023-04-26T05:19:47;14.30;;;8.43;;
2257;SDS011;1136;51.574;7.706;2023-04-26T05:22:14;13.80;;;8.63;;
2257;SDS011;1136;51.574;7.706;2023-04-26T05:24:46;15.73;;;9.37;;
2257;SDS011;1136;51.574;7.706;2023-04-26T05:27:16;17.30;;;9.30;;
2257;SDS011;1136;51.574;7.706;2023-04-26T05:29:43;13.90;;;8.63;;
2257;SDS011;1136;51.574;7.706;2023-04-26T05:32:09;17.73;;;8.63;;
2257;SDS011;1136;51.574;7.706;2023-04-26T05:34:36;15.67;;;9.70;;
2257;SDS011;1136;51.574;7.706;2023-04-26T05:37:03;17.33;;;9.47;;
2257;SDS011;1136;51.574;7.706;2023-04-26T05:39:30;15.77;;;10.60;;
2257;SDS011;1136;51.574;7.706;2023-04-26T05:41:57;17.33;;;10.70;;
2257;SDS011;1136;51.574;7.706;2023-04-26T05:44:23;17.83;;;10.70;;
2257;SDS011;1136;51.574;7.706;2023-04-26T05:46:50;20.10;;;11.20;;
2257;SDS011;1136;51.574;7.706;2023-04-26T05:49:16;21.03;;;10.60;;
2257;SDS011;1136;51.574;7.706;2023-04-26T05:51:43;16.80;;;10.33;;
2257;SDS011;1136;51.574;7.706;2023-04-26T05:54:09;19.30;;;11.13;;
2257;SDS011;1136;51.574;7.706;2023-04-26T05:56:36;19.00;;;11.77;;
2257;SDS011;1136;51.574;7.706;2023-04-26T05:59:02;17.80;;;11.23;;
2257;SDS011;1136;51.574;7.706;2023-04-26T06:01:29;18.10;;;11.10;;
2257;SDS011;1136;51.574;7.706;2023-04-26T06:03:56;22.20;;;11.50;;
2257;SDS011;1136;51.574;7.706;2023-04-26T06:06:26;20.27;;;12.13;;
2257;SDS011;1136;51.574;7.706;2023-04-26T06:08:53;22.93;;;12.40;;
2257;SDS011;1136;51.574;7.706;2023-04-26T06:11:20;18.83;;;12.20;;
2257;SDS011;1136;51.574;7.706;2023-04-26T06:13:47;18.20;;;12.27;;
2257;SDS011;1136;51.574;7.706;2023-04-26T06:16:13;19.60;;;12.83;;
2257;SDS011;1136;51.574;7.706;2023-04-26T06:18:41;19.87;;;12.13;;
2257;SDS011;1136;51.574;7.706;2023-04-26T06:21:17;19.73;;;12.10;;
2257;SDS011;1136;51.574;7.706;2023-04-26T06:23:44;17.13;;;11.83;;
2257;SDS011;1136;51.574;7.706;2023-04-26T06:26:11;21.80;;;11.40;;
2257;SDS011;1136;51.574;7.706;2023-04-26T06:28:39;17.93;;;11.37;;
2257;SDS011;1136;51.574;7.706;2023-04-26T06:31:07;16.73;;;12.07;;
2257;SDS011;1136;51.574;7.706;2023-04-26T06:33:34;17.87;;;11.77;;
2257;SDS011;1136;51.574;7.706;2023-04-26T06:36:00;22.03;;;12.37;;
2257;SDS011;1136;51.574;7.706;2023-04-26T06:38:28;17.30;;;11.57;;
2257;SDS011;1136;51.574;7.706;2023-04-26T06:40:54;23.53;;;11.67;;
2257;SDS011;1136;51.574;7.706;2023-04-26T06:43:21;16.57;;;10.17;;
2257;SDS011;1136;51.574;7.706;2023-04-26T06:45:47;16.20;;;10.83;;
2257;SDS011;1136;51.574;7.706;2023-04-26T06:48:14;14.83;;;9.83;;
2257;SDS011;1136;51.574;7.706;2023-04-26T06:50:41;17.67;;;10.20;;
2257;SDS011;1136;51.574;7.706;2023-04-26T06:53:08;13.13;;;9.40;;
2257;SDS011;1136;51.574;7.706;2023-04-26T06:55:34;18.33;;;10.07;;
2257;SDS011;1136;51.574;7.706;2023-04-26T06:58:01;17.83;;;10.03;;
2257;SDS011;1136;51.574;7.706;2023-04-26T07:00:28;19.63;;;10.00;;
2257;SDS011;1136;51.574;7.706;2023-04-26T07:02:55;15.83;;;8.37;;
2257;SDS011;1136;51.574;7.706;2023-04-26T07:05:22;10.37;;;7.60;;
2257;SDS011;1136;51.574;7.706;2023-04-26T07:07:49;14.53;;;8.23;;
2257;SDS011;1136;51.574;7.706;2023-04-26T07:10:16;18.90;;;8.30;;
2257;SDS011;1136;51.574;7.706;2023-04-26T07:12:42;22.77;;;8.33;;
2257;SDS011;1136;51.574;7.706;2023-04-26T07:15:09;13.03;;;7.80;;
2257;SDS011;1136;51.574;7.706;2023-04-26T07:17:36;15.37;;;7.47;;
2257;SDS011;1136;51.574;7.706;2023-04-26T07:20:03;13.53;;;6.30;;
2257;SDS011;1136;51.574;7.706;2023-04-26T07:22:30;13.73;;;6.40;;
2257;SDS011;1136;51.574;7.706;2023-04-26T07:24:57;18.30;;;7.40;;
2257;SDS011;1136;51.574;7.706;2023-04-26T07:27:23;12.27;;;7.87;;
2257;SDS011;1136;51.574;7.706;2023-04-26T07:29:53;7.77;;;5.93;;
2257;SDS011;1136;51.574;7.706;2023-04-26T07:32:21;10.50;;;6.93;;
2257;SDS011;1136;51.574;7.706;2023-04-26T07:34:48;13.73;;;6.07;;
2257;SDS011;1136;51.574;7.706;2023-04-26T07:37:14;8.53;;;5.87;;
2257;SDS011;1136;51.574;7.706;2023-04-26T07:39:41;7.47;;;6.00;;
2257;SDS011;1136;51.574;7.706;2023-04-26T07:42:09;10.27;;;4.90;;
2257;SDS011;1136;51.574;7.706;2023-04-26T07:44:35;8.53;;;4.70;;
2257;SDS011;1136;51.574;7.706;2023-04-26T07:47:02;9.67;;;4.60;;
2257;SDS011;1136;51.574;7.706;2023-04-26T07:49:28;7.33;;;4.13;;
2257;SDS011;1136;51.574;7.706;2023-04-26T07:51:55;10.43;;;5.40;;
2257;SDS011;1136;51.574;7.706;2023-04-26T07:54:23;5.60;;;4.40;;
2257;SDS011;1136;51.574;7.706;2023-04-26T07:56:49;6.90;;;4.03;;
2257;SDS011;1136;51.574;7.706;2023-04-26T07:59:16;7.13;;;4.30;;
2257;SDS011;1136;51.574;7.706;2023-04-26T08:01:42;5.70;;;4.67;;
2257;SDS011;1136;51.574;7.706;2023-04-26T08:04:09;6.20;;;4.53;;
2257;SDS011;1136;51.574;7.706;2023-04-26T08:06:36;4.27;;;3.87;;
2257;SDS011;1136;51.574;7.706;2023-04-26T08:09:04;6.27;;;3.80;;
2257;SDS011;1136;51.574;7.706;2023-04-26T08:11:30;14.10;;;3.63;;
2257;SDS011;1136;51.574;7.706;2023-04-26T08:13:57;9.03;;;3.40;;
2257;SDS011;1136;51.574;7.706;2023-04-26T08:16:24;8.90;;;4.17;;
2257;SDS011;1136;51.574;7.706;2023-04-26T08:18:51;5.53;;;3.20;;
2257;SDS011;1136;51.574;7.706;2023-04-26T08:21:17;10.10;;;3.70;;
2257;SDS011;1136;51.574;7.706;2023-04-26T08:23:44;5.77;;;3.00;;
2257;SDS011;1136;51.574;7.706;2023-04-26T08:26:11;7.47;;;2.73;;
2257;SDS011;1136;51.574;7.706;2023-04-26T08:28:38;4.30;;;2.30;;
2257;SDS011;1136;51.574;7.706;2023-04-26T08:31:05;5.67;;;2.70;;
2257;SDS011;1136;51.574;7.706;2023-04-26T08:33:32;7.23;;;3.83;;
2257;SDS011;1136;51.574;7.706;2023-04-26T08:35:58;5.20;;;3.27;;
2257;SDS011;1136;51.574;7.706;2023-04-26T08:38:26;6.20;;;3.27;;
2257;SDS011;1136;51.574;7.706;2023-04-26T08:40:54;6.13;;;3.03;;
2257;SDS011;1136;51.574;7.706;2023-04-26T08:43:24;3.73;;;2.90;;
2257;SDS011;1136;51.574;7.706;2023-04-26T08:45:52;6.93;;;4.20;;
2257;SDS011;1136;51.574;7.706;2023-04-26T08:48:20;6.43;;;3.30;;
2257;SDS011;1136;51.574;7.706;2023-04-26T08:50:47;6.93;;;2.87;;
2257;SDS011;1136;51.574;7.706;2023-04-26T08:53:13;4.53;;;3.00;;
2257;SDS011;1136;51.574;7.706;2023-04-26T08:55:50;11.13;;;3.70;;
2257;SDS011;1136;51.574;7.706;2023-04-26T08:58:17;4.67;;;3.30;;
2257;SDS011;1136;51.574;7.706;2023-04-26T09:00:44;7.60;;;3.37;;
2257;SDS011;1136;51.574;7.706;2023-04-26T09:03:11;4.00;;;3.67;;
2257;SDS011;1136;51.574;7.706;2023-04-26T09:05:39;5.80;;;3.50;;
2257;SDS011;1136;51.574;7.706;2023-04-26T09:08:13;4.93;;;3.23;;
2257;SDS011;1136;51.574;7.706;2023-04-26T09:10:41;5.90;;;3.30;;
2257;SDS011;1136;51.574;7.706;2023-04-26T09:13:08;4.47;;;2.90;;
2257;SDS011;1136;51.574;7.706;2023-04-26T09:15:35;4.30;;;2.73;;
2257;SDS011;1136;51.574;7.706;2023-04-26T09:18:18;5.40;;;2.63;;
2257;SDS011;1136;51.574;7.706;2023-04-26T09:20:46;5.23;;;2.80;;
2257;SDS011;1136;51.574;7.706;2023-04-26T09:23:27;4.37;;;2.83;;
2257;SDS011;1136;51.574;7.706;2023-04-26T09:25:54;6.43;;;3.23;;
2257;SDS011;1136;51.574;7.706;2023-04-26T09:28:21;4.17;;;3.40;;
2257;SDS011;1136;51.574;7.706;2023-04-26T09:30:48;6.37;;;3.70;;
2257;SDS011;1136;51.574;7.706;2023-04-26T09:33:15;5.40;;;3.40;;
2257;SDS011;1136;51.574;7.706;2023-04-26T09:35:42;6.30;;;3.23;;
2257;SDS011;1136;51.574;7.706;2023-04-26T09:38:09;6.80;;;3.53;;
2257;SDS011;1136;51.574;7.706;2023-04-26T09:40:40;5.30;;;4.03;;
2257;SDS011;1136;51.574;7.706;2023-04-26T09:43:14;4.77;;;2.80;;
2257;SDS011;1136;51.574;7.706;2023-04-26T09:48:20;5.23;;;3.37;;
2257;SDS011;1136;51.574;7.706;2023-04-26T09:50:52;4.80;;;2.77;;
2257;SDS011;1136;51.574;7.706;2023-04-26T09:56:12;7.17;;;3.30;;
2257;SDS011;1136;51.574;7.706;2023-04-26T10:01:16;5.30;;;3.10;;
2257;SDS011;1136;51.574;7.706;2023-04-26T10:03:44;5.27;;;3.30;;
2257;SDS011;1136;51.574;7.706;2023-04-26T10:06:12;5.00;;;3.00;;
2257;SDS011;1136;51.574;7.706;2023-04-26T10:08:39;4.00;;;2.77;;
2257;SDS011;1136;51.574;7.706;2023-04-26T10:11:06;6.03;;;2.93;;
2257;SDS011;1136;51.574;7.706;2023-04-26T10:13:33;7.10;;;3.20;;
2257;SDS011;1136;51.574;7.706;2023-04-26T10:16:00;2.83;;;1.60;;
2257;SDS011;1136;51.574;7.706;2023-04-26T10:18:30;2.90;;;2.10;;
2257;SDS011;1136;51.574;7.706;2023-04-26T10:20:58;4.93;;;2.77;;
2257;SDS011;1136;51.574;7.706;2023-04-26T10:23:26;4.37;;;2.40;;
2257;SDS011;1136;51.574;7.706;2023-04-26T10:25:54;6.43;;;3.10;;
2257;SDS011;1136;51.574;7.706;2023-04-26T10:28:52;4.23;;;2.90;;
2257;SDS011;1136;51.574;7.706;2023-04-26T10:31:11;4.30;;;3.37;;
2257;SDS011;1136;51.574;7.706;2023-04-26T10:33:37;3.80;;;2.97;;
2257;SDS011;1136;51.574;7.706;2023-04-26T10:36:08;4.23;;;2.87;;
2257;SDS011;1136;51.574;7.706;2023-04-26T10:38:37;5.50;;;2.97;;
2257;SDS011;1136;51.574;7.706;2023-04-26T10:43:55;6.00;;;3.07;;
2257;SDS011;1136;51.574;7.706;2023-04-26T10:46:32;4.13;;;2.33;;
2257;SDS011;1136;51.574;7.706;2023-04-26T10:49:21;5.90;;;3.10;;
2257;SDS011;1136;51.574;7.706;2023-04-26T10:52:10;7.37;;;2.80;;
2257;SDS011;1136;51.574;7.706;2023-04-26T10:54:47;3.83;;;2.67;;
2257;SDS011;1136;51.574;7.706;2023-04-26T10:57:16;6.73;;;2.77;;
2257;SDS011;1136;51.574;7.706;2023-04-26T11:00:14;5.10;;;3.67;;
2257;SDS011;1136;51.574;7.706;2023-04-26T11:05:31;7.73;;;2.90;;
2257;SDS011;1136;51.574;7.706;2023-04-26T11:08:04;8.13;;;3.60;;
2257;SDS011;1136;51.574;7.706;2023-04-26T11:10:34;3.33;;;2.53;;
2257;SDS011;1136;51.574;7.706;2023-04-26T11:13:02;3.53;;;3.10;;
2257;SDS011;1136;51.574;7.706;2023-04-26T11:15:29;4.90;;;2.93;;
2257;SDS011;1136;51.574;7.706;2023-04-26T11:17:56;5.73;;;3.00;;
2257;SDS011;1136;51.574;7.706;2023-04-26T11:20:28;2.97;;;2.67;;
2257;SDS011;1136;51.574;7.706;2023-04-26T11:22:58;6.17;;;2.83;;
2257;SDS011;1136;51.574;7.706;2023-04-26T11:25:25;6.43;;;3.27;;
2257;SDS011;1136;51.574;7.706;2023-04-26T11:27:56;4.03;;;3.17;;
2257;SDS011;1136;51.574;7.706;2023-04-26T11:30:24;10.03;;;3.10;;
2257;SDS011;1136;51.574;7.706;2023-04-26T11:32:51;4.47;;;2.80;;
2257;SDS011;1136;51.574;7.706;2023-04-26T11:35:17;4.60;;;3.17;;
2257;SDS011;1136;51.574;7.706;2023-04-26T11:37:47;3.90;;;2.97;;
2257;SDS011;1136;51.574;7.706;2023-04-26T11:40:17;3.23;;;2.93;;
2257;SDS011;1136;51.574;7.706;2023-04-26T11:42:44;4.30;;;3.20;;
2257;SDS011;1136;51.574;7.706;2023-04-26T11:45:14;5.27;;;3.10;;
2257;SDS011;1136;51.574;7.706;2023-04-26T11:47:41;7.53;;;2.90;;
2257;SDS011;1136;51.574;7.706;2023-04-26T11:50:09;6.30;;;3.13;;
2257;SDS011;1136;51.574;7.706;2023-04-26T11:52:36;4.53;;;2.90;;
2257;SDS011;1136;51.574;7.706;2023-04-26T11:55:03;6.23;;;3.33;;
2257;SDS011;1136;51.574;7.706;2023-04-26T11:57:32;4.23;;;3.53;;
2257;SDS011;1136;51.574;7.706;2023-04-26T12:00:09;4.33;;;2.90;;
2257;SDS011;1136;51.574;7.706;2023-04-26T12:02:37;5.50;;;3.17;;
2257;SDS011;1136;51.574;7.706;2023-04-26T12:05:04;4.13;;;3.37;;
2257;SDS011;1136;51.574;7.706;2023-04-26T12:07:33;4.43;;;2.60;;
2257;SDS011;1136;51.574;7.706;2023-04-26T12:10:18;4.53;;;3.50;;
2257;SDS011;1136;51.574;7.706;2023-04-26T12:12:47;4.30;;;3.20;;
2257;SDS011;1136;51.574;7.706;2023-04-26T12:15:15;3.83;;;2.67;;
2257;SDS011;1136;51.574;7.706;2023-04-26T12:17:52;5.53;;;2.87;;
2257;SDS011;1136;51.574;7.706;2023-04-26T12:20:25;4.60;;;3.10;;
2257;SDS011;1136;51.574;7.706;2023-04-26T12:23:00;4.63;;;4.27;;
2257;SDS011;1136;51.574;7.706;2023-04-26T12:25:34;4.47;;;2.97;;
2257;SDS011;1136;51.574;7.706;2023-04-26T12:28:05;4.93;;;3.37;;
2257;SDS011;1136;51.574;7.706;2023-04-26T12:30:37;4.60;;;3.07;;
2257;SDS011;1136;51.574;7.706;2023-04-26T12:33:05;5.30;;;3.03;;
2257;SDS011;1136;51.574;7.706;2023-04-26T12:35:42;3.93;;;2.80;;
2257;SDS011;1136;51.574;7.706;2023-04-26T12:38:09;5.03;;;2.70;;
2257;SDS011;1136;51.574;7.706;2023-04-26T12:40:37;3.67;;;2.87;;
2257;SDS011;1136;51.574;7.706;2023-04-26T12:43:04;3.40;;;3.20;;
2257;SDS011;1136;51.574;7.706;2023-04-26T12:45:31;4.53;;;3.40;;
2257;SDS011;1136;51.574;7.706;2023-04-26T12:47:57;5.70;;;3.20;;
2257;SDS011;1136;51.574;7.706;2023-04-26T12:50:24;6.03;;;3.43;;
2257;SDS011;1136;51.574;7.706;2023-04-26T12:52:51;6.10;;;3.20;;
2257;SDS011;1136;51.574;7.706;2023-04-26T12:55:18;4.87;;;2.80;;
2257;SDS011;1136;51.574;7.706;2023-04-26T12:57:45;3.20;;;2.90;;
2257;SDS011;1136;51.574;7.706;2023-04-26T13:00:15;5.50;;;3.37;;
2257;SDS011;1136;51.574;7.706;2023-04-26T13:02:43;3.33;;;2.90;;
2257;SDS011;1136;51.574;7.706;2023-04-26T13:05:09;9.13;;;3.80;;
2257;SDS011;1136;51.574;7.706;2023-04-26T13:07:37;5.40;;;3.10;;
2257;SDS011;1136;51.574;7.706;2023-04-26T13:10:05;5.73;;;3.90;;
2257;SDS011;1136;51.574;7.706;2023-04-26T13:12:36;6.90;;;4.50;;
2257;SDS011;1136;51.574;7.706;2023-04-26T13:15:04;4.20;;;3.90;;
2257;SDS011;1136;51.574;7.706;2023-04-26T13:17:32;7.13;;;4.00;;
2257;SDS011;1136;51.574;7.706;2023-04-26T13:19:59;4.07;;;3.70;;
2257;SDS011;1136;51.574;7.706;2023-04-26T13:22:26;4.20;;;3.47;;
2257;SDS011;1136;51.574;7.706;2023-04-26T13:24:53;3.10;;;2.80;;
2257;SDS011;1136;51.574;7.706;2023-04-26T13:27:19;7.53;;;3.80;;
2257;SDS011;1136;51.574;7.706;2023-04-26T13:29:46;5.40;;;3.27;;
2257;SDS011;1136;51.574;7.706;2023-04-26T13:32:12;4.10;;;3.03;;
2257;SDS011;1136;51.574;7.706;2023-04-26T13:34:39;11.93;;;4.03;;
2257;SDS011;1136;51.574;7.706;2023-04-26T13:37:06;6.00;;;4.10;;
2257;SDS011;1136;51.574;7.706;2023-04-26T13:39:32;4.10;;;3.33;;
2257;SDS011;1136;51.574;7.706;2023-04-26T13:41:59;7.23;;;3.53;;
2257;SDS011;1136;51.574;7.706;2023-04-26T13:44:27;5.27;;;3.70;;
2257;SDS011;1136;51.574;7.706;2023-04-26T13:46:54;4.70;;;3.50;;
2257;SDS011;1136;51.574;7.706;2023-04-26T13:49:22;4.20;;;3.80;;
2257;SDS011;1136;51.574;7.706;2023-04-26T13:51:51;3.70;;;3.40;;
2257;SDS011;1136;51.574;7.706;2023-04-26T13:54:19;4.57;;;3.63;;
2257;SDS011;1136;51.574;7.706;2023-04-26T13:56:47;4.67;;;3.53;;
2257;SDS011;1136;51.574;7.706;2023-04-26T13:59:14;9.60;;;3.50;;
2257;SDS011;1136;51.574;7.706;2023-04-26T14:01:40;6.97;;;4.40;;
2257;SDS011;1136;51.574;7.706;2023-04-26T14:04:07;6.83;;;4.50;;
2257;SDS011;1136;51.574;7.706;2023-04-26T14:06:34;6.13;;;4.47;;
2257;SDS011;1136;51.574;7.706;2023-04-26T14:09:01;8.23;;;4.10;;
2257;SDS011;1136;51.574;7.706;2023-04-26T14:11:30;4.00;;;3.70;;
2257;SDS011;1136;51.574;7.706;2023-04-26T14:13:57;4.93;;;3.43;;
2257;SDS011;1136;51.574;7.706;2023-04-26T14:16:24;6.13;;;4.30;;
2257;SDS011;1136;51.574;7.706;2023-04-26T14:18:52;5.23;;;3.77;;
2257;SDS011;1136;51.574;7.706;2023-04-26T14:21:19;5.90;;;3.20;;
2257;SDS011;1136;51.574;7.706;2023-04-26T14:23:46;4.37;;;3.10;;
2257;SDS011;1136;51.574;7.706;2023-04-26T14:26:14;3.50;;;3.20;;
2257;SDS011;1136;51.574;7.706;2023-04-26T14:28:41;4.30;;;3.63;;
2257;SDS011;1136;51.574;7.706;2023-04-26T14:31:09;4.57;;;3.77;;
2257;SDS011;1136;51.574;7.706;2023-04-26T14:33:36;5.40;;;3.17;;
2257;SDS011;1136;51.574;7.706;2023-04-26T14:36:03;3.07;;;2.87;;
2257;SDS011;1136;51.574;7.706;2023-04-26T14:38:30;3.20;;;3.00;;
2257;SDS011;1136;51.574;7.706;2023-04-26T14:40:58;4.47;;;3.33;;
2257;SDS011;1136;51.574;7.706;2023-04-26T14:43:25;4.43;;;3.20;;
2257;SDS011;1136;51.574;7.706;2023-04-26T14:45:51;8.23;;;3.90;;
2257;SDS011;1136;51.574;7.706;2023-04-26T14:48:18;5.60;;;3.80;;
2257;SDS011;1136;51.574;7.706;2023-04-26T14:50:45;7.10;;;3.80;;
2257;SDS011;1136;51.574;7.706;2023-04-26T14:53:12;4.90;;;3.80;;
2257;SDS011;1136;51.574;7.706;2023-04-26T14:55:39;5.63;;;4.10;;
2257;SDS011;1136;51.574;7.706;2023-04-26T14:58:06;3.77;;;3.47;;
2257;SDS011;1136;51.574;7.706;2023-04-26T15:00:33;9.90;;;4.10;;
2257;SDS011;1136;51.574;7.706;2023-04-26T15:03:00;5.40;;;3.53;;
2257;SDS011;1136;51.574;7.706;2023-04-26T15:05:27;7.70;;;5.00;;
2257;SDS011;1136;51.574;7.706;2023-04-26T15:07:54;4.63;;;3.63;;
2257;SDS011;1136;51.574;7.706;2023-04-26T15:10:22;6.77;;;4.33;;
2257;SDS011;1136;51.574;7.706;2023-04-26T15:12:48;8.07;;;4.10;;
2257;SDS011;1136;51.574;7.706;2023-04-26T15:15:15;6.50;;;4.83;;
2257;SDS011;1136;51.574;7.706;2023-04-26T15:17:42;4.60;;;4.20;;
2257;SDS011;1136;51.574;7.706;2023-04-26T15:20:09;6.30;;;4.03;;
2257;SDS011;1136;51.574;7.706;2023-04-26T15:22:36;5.67;;;4.30;;
2257;SDS011;1136;51.574;7.706;2023-04-26T15:25:04;5.00;;;3.70;;
2257;SDS011;1136;51.574;7.706;2023-04-26T15:27:34;4.20;;;3.90;;